Terminal Aerodrome Forecast
Issued by NWS Quad Cities IA IL

Home | Current Version | Previous Version | Text Only | Print | Product List | Glossary Off
Versions: 1 2 3 4 5 6 7 8 9 10 11 12 13 14 15 16 17 18 19

000
FTUS43 KDVN 231130
TAFMLI
TAF
KMLI 231130Z 2312/2412 11004KT P6SM BKN200
     FM231500 21007KT P6SM BKN120
     FM240100 16005KT P6SM BKN250
     FM240900 17004KT 5SM BR BKN150=

USA.gov is the U.S. government's official web portal to all federal, state and local government web resources and services.